sensor_id;sensor_type;location;lat;lon;timestamp;pressure;altitude;pressure_sealevel;temperature;humidity
7584;BME280;3833;41.764;26.204;2022-12-18T00:00:12;101281.84;;;12.75;100.00
7584;BME280;3833;41.764;26.204;2022-12-18T00:02:38;101328.84;;;12.81;100.00
7584;BME280;3833;41.764;26.204;2022-12-18T00:05:06;101325.38;;;12.81;100.00
7584;BME280;3833;41.764;26.204;2022-12-18T00:07:33;101305.72;;;12.68;100.00
7584;BME280;3833;41.764;26.204;2022-12-18T00:09:59;101313.47;;;12.71;100.00
7584;BME280;3833;41.764;26.204;2022-12-18T00:12:26;101332.97;;;12.88;100.00
7584;BME280;3833;41.764;26.204;2022-12-18T00:14:53;101312.91;;;12.87;100.00
7584;BME280;3833;41.764;26.204;2022-12-18T00:17:21;101316.34;;;12.89;100.00
7584;BME280;3833;41.764;26.204;2022-12-18T00:19:48;101342.38;;;12.69;100.00
7584;BME280;3833;41.764;26.204;2022-12-18T00:22:15;101372.25;;;12.91;100.00
7584;BME280;3833;41.764;26.204;2022-12-18T00:24:41;101369.66;;;12.90;100.00
7584;BME280;3833;41.764;26.204;2022-12-18T00:27:08;101377.16;;;13.00;100.00
7584;BME280;3833;41.764;26.204;2022-12-18T00:29:35;101375.25;;;13.05;100.00
7584;BME280;3833;41.764;26.204;2022-12-18T00:32:02;101346.44;;;13.28;100.00
7584;BME280;3833;41.764;26.204;2022-12-18T00:34:30;101355.59;;;13.41;100.00
7584;BME280;3833;41.764;26.204;2022-12-18T00:36:56;101354.78;;;12.90;100.00
7584;BME280;3833;41.764;26.204;2022-12-18T00:39:23;101357.41;;;12.90;100.00
7584;BME280;3833;41.764;26.204;2022-12-18T00:41:50;101349.72;;;12.84;100.00
7584;BME280;3833;41.764;26.204;2022-12-18T00:44:34;101398.22;;;12.97;100.00
7584;BME280;3833;41.764;26.204;2022-12-18T00:47:01;101378.59;;;13.09;100.00
7584;BME280;3833;41.764;26.204;2022-12-18T00:49:28;101371.16;;;13.23;100.00
7584;BME280;3833;41.764;26.204;2022-12-18T00:51:56;101315.84;;;13.04;100.00
7584;BME280;3833;41.764;26.204;2022-12-18T00:54:23;101380.81;;;13.21;100.00
7584;BME280;3833;41.764;26.204;2022-12-18T00:56:50;101328.84;;;12.81;100.00
7584;BME280;3833;41.764;26.204;2022-12-18T00:59:17;101327.78;;;12.87;100.00
7584;BME280;3833;41.764;26.204;2022-12-18T01:01:45;101373.22;;;13.13;100.00
7584;BME280;3833;41.764;26.204;2022-12-18T01:04:13;101372.34;;;13.13;100.00
7584;BME280;3833;41.764;26.204;2022-12-18T01:06:39;101366.19;;;13.14;100.00
7584;BME280;3833;41.764;26.204;2022-12-18T01:09:08;101379.22;;;13.41;100.00
7584;BME280;3833;41.764;26.204;2022-12-18T01:11:34;101375.56;;;13.45;100.00
7584;BME280;3833;41.764;26.204;2022-12-18T01:14:01;101369.91;;;13.33;100.00
7584;BME280;3833;41.764;26.204;2022-12-18T01:16:28;101358.59;;;13.06;100.00
7584;BME280;3833;41.764;26.204;2022-12-18T01:18:55;101353.81;;;13.17;100.00
7584;BME280;3833;41.764;26.204;2022-12-18T01:21:23;101347.09;;;13.10;100.00
7584;BME280;3833;41.764;26.204;2022-12-18T01:23:51;101336.63;;;13.10;100.00
7584;BME280;3833;41.764;26.204;2022-12-18T01:26:20;101344.94;;;13.21;100.00
7584;BME280;3833;41.764;26.204;2022-12-18T01:28:47;101357.41;;;13.39;100.00
7584;BME280;3833;41.764;26.204;2022-12-18T01:31:17;101366.16;;;13.40;100.00
7584;BME280;3833;41.764;26.204;2022-12-18T01:33:48;101365.09;;;13.21;100.00
7584;BME280;3833;41.764;26.204;2022-12-18T01:36:17;101359.94;;;13.18;100.00
7584;BME280;3833;41.764;26.204;2022-12-18T01:38:45;101271.59;;;12.69;100.00
7584;BME280;3833;41.764;26.204;2022-12-18T01:41:13;101344.94;;;13.21;100.00
7584;BME280;3833;41.764;26.204;2022-12-18T01:43:43;101336.97;;;13.24;100.00
7584;BME280;3833;41.764;26.204;2022-12-18T01:46:11;101349.66;;;13.36;100.00
7584;BME280;3833;41.764;26.204;2022-12-18T01:48:38;101354.13;;;13.57;100.00
7584;BME280;3833;41.764;26.204;2022-12-18T01:51:08;101337.13;;;13.44;100.00
7584;BME280;3833;41.764;26.204;2022-12-18T01:53:37;101341.22;;;13.28;100.00
7584;BME280;3833;41.764;26.204;2022-12-18T01:56:06;101338.44;;;13.08;100.00
7584;BME280;3833;41.764;26.204;2022-12-18T01:58:37;101358.25;;;13.15;100.00
7584;BME280;3833;41.764;26.204;2022-12-18T02:01:08;101371.00;;;13.01;100.00
7584;BME280;3833;41.764;26.204;2022-12-18T02:03:35;101399.81;;;13.03;100.00
7584;BME280;3833;41.764;26.204;2022-12-18T02:06:07;101393.13;;;13.19;100.00
7584;BME280;3833;41.764;26.204;2022-12-18T02:08:42;101383.56;;;13.18;100.00
7584;BME280;3833;41.764;26.204;2022-12-18T02:11:18;101399.50;;;13.12;100.00
7584;BME280;3833;41.764;26.204;2022-12-18T02:13:53;101364.75;;;13.05;100.00
7584;BME280;3833;41.764;26.204;2022-12-18T02:16:34;101329.66;;;12.83;100.00
7584;BME280;3833;41.764;26.204;2022-12-18T02:19:11;101392.31;;;12.92;100.00
7584;BME280;3833;41.764;26.204;2022-12-18T02:21:49;101383.38;;;12.98;100.00
7584;BME280;3833;41.764;26.204;2022-12-18T02:24:29;101385.81;;;13.04;100.00
7584;BME280;3833;41.764;26.204;2022-12-18T02:27:02;101357.44;;;13.15;100.00
7584;BME280;3833;41.764;26.204;2022-12-18T02:29:33;101389.06;;;13.35;100.00
7584;BME280;3833;41.764;26.204;2022-12-18T02:32:06;101395.13;;;13.12;100.00
7584;BME280;3833;41.764;26.204;2022-12-18T02:34:38;101346.56;;;13.01;100.00
7584;BME280;3833;41.764;26.204;2022-12-18T02:37:09;101368.81;;;13.38;100.00
7584;BME280;3833;41.764;26.204;2022-12-18T02:39:40;101389.84;;;13.61;100.00
7584;BME280;3833;41.764;26.204;2022-12-18T02:42:09;101406.75;;;13.54;100.00
7584;BME280;3833;41.764;26.204;2022-12-18T02:44:42;101412.13;;;13.49;100.00
7584;BME280;3833;41.764;26.204;2022-12-18T02:47:10;101414.97;;;13.68;100.00
7584;BME280;3833;41.764;26.204;2022-12-18T02:49:44;101406.50;;;13.84;100.00
7584;BME280;3833;41.764;26.204;2022-12-18T02:52:20;101417.94;;;13.82;100.00
7584;BME280;3833;41.764;26.204;2022-12-18T02:55:00;101422.34;;;13.81;100.00
7584;BME280;3833;41.764;26.204;2022-12-18T02:57:34;101412.25;;;13.71;100.00
7584;BME280;3833;41.764;26.204;2022-12-18T03:00:07;101436.47;;;14.02;100.00
7584;BME280;3833;41.764;26.204;2022-12-18T03:02:39;101437.22;;;14.05;100.00
7584;BME280;3833;41.764;26.204;2022-12-18T03:05:13;101450.19;;;14.10;100.00
7584;BME280;3833;41.764;26.204;2022-12-18T03:07:46;101451.81;;;14.14;100.00
7584;BME280;3833;41.764;26.204;2022-12-18T03:10:21;101439.31;;;13.73;100.00
7584;BME280;3833;41.764;26.204;2022-12-18T03:12:54;101432.53;;;13.66;100.00
7584;BME280;3833;41.764;26.204;2022-12-18T03:15:28;101439.44;;;13.68;100.00
7584;BME280;3833;41.764;26.204;2022-12-18T03:17:59;101441.13;;;13.71;100.00
7584;BME280;3833;41.764;26.204;2022-12-18T03:20:31;101429.94;;;13.89;100.00
7584;BME280;3833;41.764;26.204;2022-12-18T03:23:03;101456.72;;;13.98;100.00
7584;BME280;3833;41.764;26.204;2022-12-18T03:25:32;101441.38;;;13.88;100.00
7584;BME280;3833;41.764;26.204;2022-12-18T03:28:02;101445.22;;;13.55;100.00
7584;BME280;3833;41.764;26.204;2022-12-18T03:30:33;101468.22;;;13.47;100.00
7584;BME280;3833;41.764;26.204;2022-12-18T03:33:05;101469.50;;;13.60;100.00
7584;BME280;3833;41.764;26.204;2022-12-18T03:35:37;101448.09;;;13.72;100.00
7584;BME280;3833;41.764;26.204;2022-12-18T03:38:05;101460.72;;;13.61;100.00
7584;BME280;3833;41.764;26.204;2022-12-18T03:40:35;101473.69;;;13.90;100.00
7584;BME280;3833;41.764;26.204;2022-12-18T03:43:10;101466.50;;;13.95;100.00
7584;BME280;3833;41.764;26.204;2022-12-18T03:45:48;101472.72;;;13.68;100.00
7584;BME280;3833;41.764;26.204;2022-12-18T03:48:19;101467.75;;;13.60;100.00
7584;BME280;3833;41.764;26.204;2022-12-18T03:50:55;101469.59;;;13.57;100.00
7584;BME280;3833;41.764;26.204;2022-12-18T03:53:29;101471.97;;;13.89;100.00
7584;BME280;3833;41.764;26.204;2022-12-18T03:55:58;101476.25;;;13.91;100.00
7584;BME280;3833;41.764;26.204;2022-12-18T03:58:29;101486.00;;;13.88;100.00
7584;BME280;3833;41.764;26.204;2022-12-18T04:01:01;101496.94;;;13.76;100.00
7584;BME280;3833;41.764;26.204;2022-12-18T04:03:31;101498.75;;;13.49;100.00
7584;BME280;3833;41.764;26.204;2022-12-18T04:05:59;101496.25;;;13.71;100.00
7584;BME280;3833;41.764;26.204;2022-12-18T04:08:27;101497.59;;;13.82;100.00
7584;BME280;3833;41.764;26.204;2022-12-18T04:10:55;101494.06;;;13.83;100.00
7584;BME280;3833;41.764;26.204;2022-12-18T04:13:22;101493.38;;;13.77;100.00
7584;BME280;3833;41.764;26.204;2022-12-18T04:15:51;101499.66;;;13.48;100.00
7584;BME280;3833;41.764;26.204;2022-12-18T04:18:18;101489.41;;;13.41;100.00
7584;BME280;3833;41.764;26.204;2022-12-18T04:20:45;101501.09;;;13.57;100.00
7584;BME280;3833;41.764;26.204;2022-12-18T04:23:11;101509.09;;;13.54;100.00
7584;BME280;3833;41.764;26.204;2022-12-18T04:25:38;101486.97;;;13.61;100.00
7584;BME280;3833;41.764;26.204;2022-12-18T04:28:05;101518.47;;;13.61;100.00
7584;BME280;3833;41.764;26.204;2022-12-18T04:30:32;101517.44;;;13.41;100.00
7584;BME280;3833;41.764;26.204;2022-12-18T04:33:00;101481.16;;;13.27;100.00
7584;BME280;3833;41.764;26.204;2022-12-18T04:35:27;101514.22;;;13.57;100.00
7584;BME280;3833;41.764;26.204;2022-12-18T04:37:54;101505.41;;;13.59;100.00
7584;BME280;3833;41.764;26.204;2022-12-18T04:40:20;101509.59;;;13.65;100.00
7584;BME280;3833;41.764;26.204;2022-12-18T04:42:47;101513.69;;;13.48;100.00
7584;BME280;3833;41.764;26.204;2022-12-18T04:45:14;101531.50;;;13.38;100.00
7584;BME280;3833;41.764;26.204;2022-12-18T04:47:41;101529.78;;;13.37;100.00
7584;BME280;3833;41.764;26.204;2022-12-18T04:50:09;101531.66;;;13.59;100.00
7584;BME280;3833;41.764;26.204;2022-12-18T04:52:36;101535.03;;;13.63;100.00
7584;BME280;3833;41.764;26.204;2022-12-18T04:55:03;101527.25;;;13.60;100.00
7584;BME280;3833;41.764;26.204;2022-12-18T04:57:30;101537.94;;;13.80;100.00
7584;BME280;3833;41.764;26.204;2022-12-18T04:59:57;101539.38;;;13.64;100.00
7584;BME280;3833;41.764;26.204;2022-12-18T05:02:23;101541.41;;;13.30;100.00
7584;BME280;3833;41.764;26.204;2022-12-18T05:04:50;101542.88;;;13.39;100.00
7584;BME280;3833;41.764;26.204;2022-12-18T05:07:18;101544.06;;;13.54;100.00
7584;BME280;3833;41.764;26.204;2022-12-18T05:09:45;101553.50;;;13.60;100.00
7584;BME280;3833;41.764;26.204;2022-12-18T05:12:12;101556.78;;;13.66;100.00
7584;BME280;3833;41.764;26.204;2022-12-18T05:14:38;101553.50;;;13.60;100.00
7584;BME280;3833;41.764;26.204;2022-12-18T05:17:05;101551.38;;;13.19;100.00
7584;BME280;3833;41.764;26.204;2022-12-18T05:19:32;101528.50;;;12.97;100.00
7584;BME280;3833;41.764;26.204;2022-12-18T05:21:59;101578.81;;;13.35;100.00
7584;BME280;3833;41.764;26.204;2022-12-18T05:24:28;101578.13;;;13.56;100.00
7584;BME280;3833;41.764;26.204;2022-12-18T05:26:54;101576.81;;;13.69;100.00
7584;BME280;3833;41.764;26.204;2022-12-18T05:29:21;101563.69;;;13.43;100.00
7584;BME280;3833;41.764;26.204;2022-12-18T05:31:48;101564.81;;;13.62;100.00
7584;BME280;3833;41.764;26.204;2022-12-18T05:34:15;101590.03;;;13.40;100.00
7584;BME280;3833;41.764;26.204;2022-12-18T05:36:42;101562.63;;;13.23;100.00
7584;BME280;3833;41.764;26.204;2022-12-18T05:39:09;101594.47;;;13.38;100.00
7584;BME280;3833;41.764;26.204;2022-12-18T05:41:37;101592.47;;;13.46;100.00
7584;BME280;3833;41.764;26.204;2022-12-18T05:44:04;101593.78;;;13.59;100.00
7584;BME280;3833;41.764;26.204;2022-12-18T05:46:31;101601.94;;;13.76;100.00
7584;BME280;3833;41.764;26.204;2022-12-18T05:48:59;101600.94;;;13.28;100.00
7584;BME280;3833;41.764;26.204;2022-12-18T05:51:26;101605.28;;;13.02;100.00
7584;BME280;3833;41.764;26.204;2022-12-18T05:53:53;101612.09;;;13.06;100.00
7584;BME280;3833;41.764;26.204;2022-12-18T05:56:21;101620.34;;;13.50;100.00
7584;BME280;3833;41.764;26.204;2022-12-18T05:58:52;101622.00;;;13.78;100.00
7584;BME280;3833;41.764;26.204;2022-12-18T06:01:21;101636.50;;;13.90;100.00
7584;BME280;3833;41.764;26.204;2022-12-18T06:03:48;101632.16;;;13.63;100.00
7584;BME280;3833;41.764;26.204;2022-12-18T06:06:16;101621.41;;;13.45;100.00
7584;BME280;3833;41.764;26.204;2022-12-18T06:08:43;101637.50;;;13.60;100.00
7584;BME280;3833;41.764;26.204;2022-12-18T06:11:10;101606.22;;;13.54;100.00
7584;BME280;3833;41.764;26.204;2022-12-18T06:13:37;101648.81;;;13.88;100.00
7584;BME280;3833;41.764;26.204;2022-12-18T06:16:06;101650.44;;;13.92;100.00
7584;BME280;3833;41.764;26.204;2022-12-18T06:18:33;101666.19;;;13.66;100.00
7584;BME280;3833;41.764;26.204;2022-12-18T06:21:02;101655.28;;;13.25;100.00
7584;BME280;3833;41.764;26.204;2022-12-18T06:23:29;101663.06;;;13.26;100.00
7584;BME280;3833;41.764;26.204;2022-12-18T06:25:56;101661.50;;;13.48;100.00
7584;BME280;3833;41.764;26.204;2022-12-18T06:28:23;101674.56;;;13.51;100.00
7584;BME280;3833;41.764;26.204;2022-12-18T06:30:49;101677.81;;;13.85;100.00
7584;BME280;3833;41.764;26.204;2022-12-18T06:33:17;101687.81;;;13.74;100.00
7584;BME280;3833;41.764;26.204;2022-12-18T06:35:44;101692.47;;;13.37;100.00
7584;BME280;3833;41.764;26.204;2022-12-18T06:38:11;101696.78;;;13.67;100.00
7584;BME280;3833;41.764;26.204;2022-12-18T06:40:38;101704.78;;;13.90;100.00
7584;BME280;3833;41.764;26.204;2022-12-18T06:43:06;101711.53;;;13.97;100.00
7584;BME280;3833;41.764;26.204;2022-12-18T06:45:33;101718.06;;;14.13;100.00
7584;BME280;3833;41.764;26.204;2022-12-18T06:48:00;101716.91;;;13.94;100.00
7584;BME280;3833;41.764;26.204;2022-12-18T06:50:30;101720.22;;;13.73;100.00
7584;BME280;3833;41.764;26.204;2022-12-18T06:52:57;101724.34;;;13.80;100.00
7584;BME280;3833;41.764;26.204;2022-12-18T06:55:24;101734.53;;;13.90;100.00
7584;BME280;3833;41.764;26.204;2022-12-18T06:57:51;101746.41;;;14.02;100.00
7584;BME280;3833;41.764;26.204;2022-12-18T07:00:18;101750.19;;;14.21;100.00
7584;BME280;3833;41.764;26.204;2022-12-18T07:02:45;101748.28;;;13.71;100.00
7584;BME280;3833;41.764;26.204;2022-12-18T07:05:11;101750.25;;;13.64;100.00
7584;BME280;3833;41.764;26.204;2022-12-18T07:07:40;101763.16;;;13.98;100.00
7584;BME280;3833;41.764;26.204;2022-12-18T07:10:07;101773.00;;;14.20;100.00
7584;BME280;3833;41.764;26.204;2022-12-18T07:12:34;101778.38;;;14.42;100.00
7584;BME280;3833;41.764;26.204;2022-12-18T07:15:02;101778.91;;;14.27;100.00
7584;BME280;3833;41.764;26.204;2022-12-18T07:17:29;101778.97;;;13.69;100.00
7584;BME280;3833;41.764;26.204;2022-12-18T07:19:56;101780.41;;;13.79;100.00
7584;BME280;3833;41.764;26.204;2022-12-18T07:22:23;101790.31;;;13.69;100.00
7584;BME280;3833;41.764;26.204;2022-12-18T07:24:52;101789.47;;;13.40;100.00
7584;BME280;3833;41.764;26.204;2022-12-18T07:27:19;101795.00;;;13.60;100.00
7584;BME280;3833;41.764;26.204;2022-12-18T07:29:46;101802.78;;;13.63;100.00
7584;BME280;3833;41.764;26.204;2022-12-18T07:32:13;101776.63;;;13.31;100.00
7584;BME280;3833;41.764;26.204;2022-12-18T07:34:40;101806.75;;;13.47;100.00
7584;BME280;3833;41.764;26.204;2022-12-18T07:37:06;101793.00;;;13.39;100.00
7584;BME280;3833;41.764;26.204;2022-12-18T07:39:33;101828.84;;;13.40;100.00
7584;BME280;3833;41.764;26.204;2022-12-18T07:42:04;101822.88;;;13.64;100.00
7584;BME280;3833;41.764;26.204;2022-12-18T07:44:48;101808.03;;;13.34;100.00
7584;BME280;3833;41.764;26.204;2022-12-18T07:47:15;101825.31;;;13.41;100.00
7584;BME280;3833;41.764;26.204;2022-12-18T07:49:42;101808.34;;;13.22;100.00
7584;BME280;3833;41.764;26.204;2022-12-18T07:52:08;101832.72;;;13.27;100.00
7584;BME280;3833;41.764;26.204;2022-12-18T07:54:37;101840.50;;;12.98;100.00
7584;BME280;3833;41.764;26.204;2022-12-18T07:57:05;101835.34;;;13.27;100.00
7584;BME280;3833;41.764;26.204;2022-12-18T07:59:32;101833.69;;;13.23;100.00
7584;BME280;3833;41.764;26.204;2022-12-18T08:01:59;101845.56;;;13.36;100.00
7584;BME280;3833;41.764;26.204;2022-12-18T08:04:26;101843.84;;;13.35;100.00
7584;BME280;3833;41.764;26.204;2022-12-18T08:06:53;101856.78;;;13.41;100.00
7584;BME280;3833;41.764;26.204;2022-12-18T08:09:20;101854.31;;;13.37;100.00
7584;BME280;3833;41.764;26.204;2022-12-18T08:11:46;101863.16;;;13.33;100.00
7584;BME280;3833;41.764;26.204;2022-12-18T08:14:15;101853.28;;;13.42;100.00
7584;BME280;3833;41.764;26.204;2022-12-18T08:16:41;101855.16;;;13.37;100.00
7584;BME280;3833;41.764;26.204;2022-12-18T08:19:08;101863.94;;;13.36;100.00
7584;BME280;3833;41.764;26.204;2022-12-18T08:21:35;101868.28;;;13.37;100.00
7584;BME280;3833;41.764;26.204;2022-12-18T08:24:02;101860.50;;;13.34;100.00
7584;BME280;3833;41.764;26.204;2022-12-18T08:26:30;101872.47;;;13.44;100.00
7584;BME280;3833;41.764;26.204;2022-12-18T08:28:59;101866.22;;;13.48;100.00
7584;BME280;3833;41.764;26.204;2022-12-18T08:31:28;101796.06;;;13.24;100.00
7584;BME280;3833;41.764;26.204;2022-12-18T08:33:56;101872.03;;;13.59;100.00
7584;BME280;3833;41.764;26.204;2022-12-18T08:36:23;101880.09;;;13.53;100.00
7584;BME280;3833;41.764;26.204;2022-12-18T08:38:50;101886.94;;;13.57;100.00
7584;BME280;3833;41.764;26.204;2022-12-18T08:41:18;101882.59;;;13.56;100.00
7584;BME280;3833;41.764;26.204;2022-12-18T08:43:47;101882.88;;;13.47;100.00
7584;BME280;3833;41.764;26.204;2022-12-18T08:46:35;101879.13;;;13.55;100.00
7584;BME280;3833;41.764;26.204;2022-12-18T08:49:02;101874.34;;;13.69;100.00
7584;BME280;3833;41.764;26.204;2022-12-18T08:51:29;101875.03;;;13.76;100.00
7584;BME280;3833;41.764;26.204;2022-12-18T08:53:56;101878.38;;;13.81;100.00
7584;BME280;3833;41.764;26.204;2022-12-18T08:56:23;101871.91;;;13.92;100.00
7584;BME280;3833;41.764;26.204;2022-12-18T08:58:51;101845.06;;;13.54;100.00
7584;BME280;3833;41.764;26.204;2022-12-18T09:01:19;101874.00;;;13.81;100.00
7584;BME280;3833;41.764;26.204;2022-12-18T09:03:47;101867.97;;;13.78;100.00
7584;BME280;3833;41.764;26.204;2022-12-18T09:06:14;101869.66;;;13.80;100.00
7584;BME280;3833;41.764;26.204;2022-12-18T09:08:42;101869.97;;;13.70;100.00
7584;BME280;3833;41.764;26.204;2022-12-18T09:11:12;101869.88;;;13.73;100.00
7584;BME280;3833;41.764;26.204;2022-12-18T09:13:39;101839.38;;;13.39;100.00
7584;BME280;3833;41.764;26.204;2022-12-18T09:16:06;101873.75;;;13.60;100.00
7584;BME280;3833;41.764;26.204;2022-12-18T09:18:33;101876.97;;;13.69;100.00
7584;BME280;3833;41.764;26.204;2022-12-18T09:21:07;101869.66;;;13.80;100.00
7584;BME280;3833;41.764;26.204;2022-12-18T09:23:35;101871.63;;;13.72;100.00
7584;BME280;3833;41.764;26.204;2022-12-18T09:26:02;101870.78;;;13.72;100.00
7584;BME280;3833;41.764;26.204;2022-12-18T09:28:29;101877.25;;;13.60;100.00
7584;BME280;3833;41.764;26.204;2022-12-18T09:30:56;101869.09;;;13.69;100.00
7584;BME280;3833;41.764;26.204;2022-12-18T09:33:23;101868.41;;;13.63;100.00
7584;BME280;3833;41.764;26.204;2022-12-18T09:35:50;101868.50;;;13.60;100.00
7584;BME280;3833;41.764;26.204;2022-12-18T09:38:19;101869.44;;;13.88;100.00
7584;BME280;3833;41.764;26.204;2022-12-18T09:40:48;101862.28;;;13.93;100.00
7584;BME280;3833;41.764;26.204;2022-12-18T09:43:18;101851.94;;;13.87;100.00
7584;BME280;3833;41.764;26.204;2022-12-18T09:45:51;101876.22;;;13.95;100.00
7584;BME280;3833;41.764;26.204;2022-12-18T09:48:23;101884.19;;;13.92;100.00
7584;BME280;3833;41.764;26.204;2022-12-18T09:50:55;101873.91;;;13.84;100.00
7584;BME280;3833;41.764;26.204;2022-12-18T09:53:28;101887.16;;;13.80;100.00
7584;BME280;3833;41.764;26.204;2022-12-18T09:55:57;101885.94;;;13.91;100.00
7584;BME280;3833;41.764;26.204;2022-12-18T09:58:27;101886.91;;;13.89;100.00
7584;BME280;3833;41.764;26.204;2022-12-18T10:00:56;101880.47;;;13.70;100.00
7584;BME280;3833;41.764;26.204;2022-12-18T10:03:23;101878.09;;;13.61;100.00
7584;BME280;3833;41.764;26.204;2022-12-18T10:05:59;101808.34;;;13.22;100.00
7584;BME280;3833;41.764;26.204;2022-12-18T10:08:37;101863.59;;;13.48;100.00
7584;BME280;3833;41.764;26.204;2022-12-18T10:11:25;101877.34;;;13.57;100.00
7584;BME280;3833;41.764;26.204;2022-12-18T10:13:57;101885.72;;;13.70;100.00
7584;BME280;3833;41.764;26.204;2022-12-18T10:16:33;101891.44;;;13.84;100.00
7584;BME280;3833;41.764;26.204;2022-12-18T10:19:14;101889.16;;;13.72;100.00
7584;BME280;3833;41.764;26.204;2022-12-18T10:21:50;101865.03;;;13.58;100.00
7584;BME280;3833;41.764;26.204;2022-12-18T10:24:26;101880.38;;;13.73;100.00
7584;BME280;3833;41.764;26.204;2022-12-18T10:26:59;101876.13;;;13.69;100.00
7584;BME280;3833;41.764;26.204;2022-12-18T10:29:34;101885.03;;;13.63;100.00
7584;BME280;3833;41.764;26.204;2022-12-18T10:32:00;101851.53;;;13.41;100.00
7584;BME280;3833;41.764;26.204;2022-12-18T10:34:27;101883.84;;;13.75;100.00
7584;BME280;3833;41.764;26.204;2022-12-18T10:36:54;101898.66;;;13.76;100.00
7584;BME280;3833;41.764;26.204;2022-12-18T10:39:24;101885.34;;;13.82;100.00
7584;BME280;3833;41.764;26.204;2022-12-18T10:41:51;101895.09;;;13.78;100.00
7584;BME280;3833;41.764;26.204;2022-12-18T10:44:20;101891.56;;;13.49;100.00
7584;BME280;3833;41.764;26.204;2022-12-18T10:46:49;101864.44;;;13.48;100.00
7584;BME280;3833;41.764;26.204;2022-12-18T10:49:22;101890.00;;;13.74;100.00
7584;BME280;3833;41.764;26.204;2022-12-18T10:51:49;101877.34;;;13.57;100.00
7584;BME280;3833;41.764;26.204;2022-12-18T10:54:19;101873.81;;;13.87;100.00
7584;BME280;3833;41.764;26.204;2022-12-18T10:56:49;101891.16;;;13.93;100.00
7584;BME280;3833;41.764;26.204;2022-12-18T10:59:17;101873.41;;;13.72;100.00
7584;BME280;3833;41.764;26.204;2022-12-18T11:01:47;101888.53;;;13.93;100.00
7584;BME280;3833;41.764;26.204;2022-12-18T11:04:18;101884.69;;;13.45;100.00
7584;BME280;3833;41.764;26.204;2022-12-18T11:06:57;101877.63;;;13.15;100.00
7584;BME280;3833;41.764;26.204;2022-12-18T11:09:25;101877.47;;;13.21;100.00
7584;BME280;3833;41.764;26.204;2022-12-18T11:11:55;101878.59;;;13.45;100.00
7584;BME280;3833;41.764;26.204;2022-12-18T11:14:26;101898.47;;;13.53;100.00
7584;BME280;3833;41.764;26.204;2022-12-18T11:16:58;101886.94;;;13.58;100.00
7584;BME280;3833;41.764;26.204;2022-12-18T11:19:31;101910.84;;;13.78;100.00
7584;BME280;3833;41.764;26.204;2022-12-18T11:21:59;101902.84;;;13.83;100.00
7584;BME280;3833;41.764;26.204;2022-12-18T11:24:30;101919.34;;;13.86;100.00
7584;BME280;3833;41.764;26.204;2022-12-18T11:27:01;101920.31;;;13.84;100.00
7584;BME280;3833;41.764;26.204;2022-12-18T11:29:36;101904.63;;;13.81;100.00
7584;BME280;3833;41.764;26.204;2022-12-18T11:32:23;101926.44;;;13.84;100.00
7584;BME280;3833;41.764;26.204;2022-12-18T11:34:55;101923.69;;;13.89;100.00
7584;BME280;3833;41.764;26.204;2022-12-18T11:37:23;101887.63;;;13.65;100.00
7584;BME280;3833;41.764;26.204;2022-12-18T11:39:54;101940.88;;;13.99;100.00
7584;BME280;3833;41.764;26.204;2022-12-18T11:42:27;101939.44;;;13.58;100.00
7584;BME280;3833;41.764;26.204;2022-12-18T11:45:00;101938.47;;;13.61;100.00
7584;BME280;3833;41.764;26.204;2022-12-18T11:47:34;101948.41;;;13.50;100.00
7584;BME280;3833;41.764;26.204;2022-12-18T11:50:12;101954.66;;;13.13;100.00
7584;BME280;3833;41.764;26.204;2022-12-18T11:52:40;101937.25;;;13.10;100.00
7584;BME280;3833;41.764;26.204;2022-12-18T11:55:11;101942.50;;;13.09;100.00
7584;BME280;3833;41.764;26.204;2022-12-18T11:57:50;101941.94;;;12.96;100.00
7584;BME280;3833;41.764;26.204;2022-12-18T12:00:22;101944.47;;;13.34;100.00
7584;BME280;3833;41.764;26.204;2022-12-18T12:03:14;101944.38;;;13.37;100.00
7584;BME280;3833;41.764;26.204;2022-12-18T12:05:55;101914.31;;;13.48;100.00
7584;BME280;3833;41.764;26.204;2022-12-18T12:08:30;101950.47;;;13.71;100.00
7584;BME280;3833;41.764;26.204;2022-12-18T12:11:05;101916.41;;;13.68;100.00
7584;BME280;3833;41.764;26.204;2022-12-18T12:13:43;101930.78;;;13.55;100.00
7584;BME280;3833;41.764;26.204;2022-12-18T12:16:17;101956.53;;;13.41;100.00
7584;BME280;3833;41.764;26.204;2022-12-18T12:18:53;101956.22;;;13.20;100.00
7584;BME280;3833;41.764;26.204;2022-12-18T12:21:28;101939.47;;;12.89;100.00
7584;BME280;3833;41.764;26.204;2022-12-18T12:24:08;101961.00;;;13.04;100.00
7584;BME280;3833;41.764;26.204;2022-12-18T12:26:42;101965.47;;;13.34;100.00
7584;BME280;3833;41.764;26.204;2022-12-18T12:29:27;101958.25;;;13.42;100.00
7584;BME280;3833;41.764;26.204;2022-12-18T12:32:07;101962.56;;;13.45;100.00
7584;BME280;3833;41.764;26.204;2022-12-18T12:34:47;101969.91;;;13.31;100.00
7584;BME280;3833;41.764;26.204;2022-12-18T12:37:27;101975.88;;;13.37;100.00
7584;BME280;3833;41.764;26.204;2022-12-18T12:39:56;101983.84;;;12.99;100.00
7584;BME280;3833;41.764;26.204;2022-12-18T12:42:29;101986.81;;;13.19;100.00
7584;BME280;3833;41.764;26.204;2022-12-18T12:45:20;101965.72;;;12.52;100.00
7584;BME280;3833;41.764;26.204;2022-12-18T12:47:50;101994.38;;;12.58;100.00
7584;BME280;3833;41.764;26.204;2022-12-18T12:50:20;101999.69;;;12.55;100.00
7584;BME280;3833;41.764;26.204;2022-12-18T12:52:51;101999.59;;;12.21;100.00
7584;BME280;3833;41.764;26.204;2022-12-18T12:55:21;102015.31;;;12.21;100.00
7584;BME280;3833;41.764;26.204;2022-12-18T12:57:57;102017.66;;;12.34;100.00
7584;BME280;3833;41.764;26.204;2022-12-18T13:00:31;102003.31;;;12.11;100.00
7584;BME280;3833;41.764;26.204;2022-12-18T13:03:07;102027.78;;;12.10;100.00